Time;durP1;ratioP1;P1;durP2;ratioP2;P2;SDS_P1;SDS_P2;PMS_P1;PMS_P2;Temp;Humidity;BMP_temperature;BMP_pressure;BME280_temperature;BME280_humidity;BME280_pressure;Samples;Min_cycle;Max_cycle;Signal;HPM_P1;HPM_P2
2022/11/16 00:00:27;;;;;;;7.37;5.80;;;;;;;9.68;75.91;94371.25;5052601;28;20292;-82
2022/11/16 00:02:53;;;;;;;6.40;5.80;;;;;;;9.60;75.88;94363.78;5053868;28;20216;-83
2022/11/16 00:05:21;;;;;;;5.60;5.10;;;;;;;9.59;76.15;94349.34;5052778;28;20565;-83
2022/11/16 00:07:47;;;;;;;6.90;5.60;;;;;;;9.53;75.96;94347.56;5046214;28;20560;-82
2022/11/16 00:10:14;;;;;;;6.03;5.40;;;;;;;9.52;76.47;94344.22;5053761;28;20735;-83
2022/11/16 00:12:41;;;;;;;7.07;6.37;;;;;;;9.49;76.21;94338.69;5053463;28;20190;-83
2022/11/16 00:15:08;;;;;;;7.60;5.63;;;;;;;9.49;76.30;94331.75;5052869;28;20249;-83
2022/11/16 00:17:34;;;;;;;5.73;5.10;;;;;;;9.55;76.12;94330.19;5052376;28;20201;-83
2022/11/16 00:20:01;;;;;;;5.33;4.83;;;;;;;9.58;75.85;94345.19;5051906;28;20583;-81
2022/11/16 00:22:28;;;;;;;6.03;5.43;;;;;;;9.54;75.73;94337.09;5051746;28;20292;-83
2022/11/16 00:24:55;;;;;;;6.70;5.00;;;;;;;9.52;75.65;94336.50;5051949;28;20225;-82
2022/11/16 00:27:21;;;;;;;6.03;5.07;;;;;;;9.53;75.92;94342.44;5052268;28;20201;-82
2022/11/16 00:29:48;;;;;;;5.33;4.83;;;;;;;9.59;75.83;94346.78;5052120;28;20198;-84
2022/11/16 00:32:14;;;;;;;6.60;4.97;;;;;;;9.69;75.10;94347.16;5052329;28;20201;-82
2022/11/16 00:34:40;;;;;;;5.87;5.03;;;;;;;9.72;75.07;94346.75;5052413;28;20819;-83
2022/11/16 00:37:07;;;;;;;6.70;5.43;;;;;;;9.75;74.70;94350.69;5052355;28;20210;-83
2022/11/16 00:39:35;;;;;;;6.30;5.37;;;;;;;9.83;74.56;94342.75;5050905;28;20198;-81
2022/11/16 00:42:01;;;;;;;6.40;5.23;;;;;;;9.89;74.07;94347.09;5052284;28;20573;-83
2022/11/16 00:44:28;;;;;;;6.13;5.20;;;;;;;9.92;73.57;94347.47;5052071;28;20685;-83
2022/11/16 00:46:54;;;;;;;6.00;5.40;;;;;;;9.99;73.47;94358.56;5052353;28;20197;-83
2022/11/16 00:49:21;;;;;;;5.57;4.97;;;;;;;10.06;73.19;94363.66;5051485;28;20208;-83
2022/11/16 00:51:47;;;;;;;6.10;5.10;;;;;;;10.13;73.20;94361.06;5051887;28;20213;-81
2022/11/16 00:54:14;;;;;;;5.50;5.00;;;;;;;10.17;72.79;94359.69;5051396;28;20218;-83
2022/11/16 00:56:42;;;;;;;6.07;5.47;;;;;;;10.17;72.48;94349.38;5044682;28;20198;-83
2022/11/16 00:59:08;;;;;;;6.20;5.23;;;;;;;10.07;72.80;94354.16;5052917;28;20198;-83
2022/11/16 01:01:35;;;;;;;9.20;5.40;;;;;;;10.00;72.64;94352.41;5051799;28;20209;-82
2022/11/16 01:04:01;;;;;;;6.37;5.40;;;;;;;9.91;73.37;94350.25;5051966;28;20225;-83
2022/11/16 01:06:28;;;;;;;6.70;5.23;;;;;;;9.79;73.74;94344.97;5051727;28;20572;-82
2022/11/16 01:08:54;;;;;;;7.17;5.33;;;;;;;9.77;73.61;94354.66;5051582;28;20197;-83
2022/11/16 01:14:08;;;;;;;7.10;5.40;;;;;;;9.92;73.99;94344.91;5041344;28;20240;-83
2022/11/16 01:16:35;;;;;;;5.53;4.93;;;;;;;10.07;73.39;94336.94;5049607;28;20189;-83
2022/11/16 01:19:02;;;;;;;5.90;5.30;;;;;;;10.01;73.65;94338.53;5051326;28;20210;-82
2022/11/16 01:21:28;;;;;;;5.47;4.97;;;;;;;9.99;73.97;94330.28;5051419;28;20194;-82
2022/11/16 01:23:56;;;;;;;8.47;5.63;;;;;;;10.01;73.97;94327.47;5051668;28;20217;-83
2022/11/16 01:26:22;;;;;;;6.77;5.50;;;;;;;10.05;73.57;94314.00;5051360;28;20193;-82
2022/11/16 01:28:49;;;;;;;7.20;5.70;;;;;;;10.04;73.67;94309.84;5050944;28;20201;-83
2022/11/16 01:31:17;;;;;;;7.93;5.63;;;;;;;10.11;73.30;94314.19;5051592;28;20201;-83
2022/11/16 01:33:43;;;;;;;6.17;5.60;;;;;;;10.08;73.29;94307.66;5051340;28;20600;-83
2022/11/16 01:36:13;;;;;;;6.27;5.67;;;;;;;10.17;73.16;94306.44;5051473;28;20208;-83
2022/11/16 01:38:39;;;;;;;6.93;5.83;;;;;;;10.19;72.33;94309.66;5049889;28;20198;-82
2022/11/16 01:41:06;;;;;;;5.97;5.47;;;;;;;10.13;73.12;94309.63;5051118;28;20200;-83
2022/11/16 01:43:50;;;;;;;6.07;5.47;;;;;;;10.08;73.19;94302.53;5051582;28;20224;-81
2022/11/16 01:46:17;;;;;;;6.30;5.70;;;;;;;10.19;72.68;94304.50;5051496;28;20208;-83
2022/11/16 01:48:45;;;;;;;6.73;5.80;;;;;;;10.26;72.65;94307.03;5044721;28;20212;-82
2022/11/16 01:51:12;;;;;;;5.60;5.10;;;;;;;10.36;72.83;94309.94;5050830;28;20365;-85
2022/11/16 01:53:38;;;;;;;6.60;5.57;;;;;;;10.46;72.26;94312.84;5050889;28;20236;-83
2022/11/16 01:56:05;;;;;;;6.10;5.50;;;;;;;10.48;72.30;94318.59;5050442;28;20197;-83
2022/11/16 01:58:32;;;;;;;7.63;5.63;;;;;;;10.51;72.16;94310.44;5050615;28;20197;-83
2022/11/16 02:00:58;;;;;;;6.27;5.67;;;;;;;10.51;71.85;94309.66;5050401;28;20611;-83
2022/11/16 02:03:26;;;;;;;8.67;5.77;;;;;;;10.53;72.42;94311.03;5050441;28;20221;-84
2022/11/16 02:06:08;;;;;;;7.97;5.73;;;;;;;10.58;72.53;94311.19;5049907;28;20194;-82
2022/11/16 02:11:51;;;;;;;8.33;5.90;;;;;;;10.63;71.97;94306.22;5047326;28;20580;-83
2022/11/16 02:14:29;;;;;;;6.83;6.13;;;;;;;10.54;72.29;94302.31;5049192;28;20228;-82
2022/11/16 02:17:05;;;;;;;6.63;5.57;;;;;;;10.33;73.04;94295.72;5037005;28;20186;-82
2022/11/16 02:19:57;;;;;;;6.60;5.87;;;;;;;10.43;72.76;94284.97;5035248;28;20205;-82
2022/11/16 02:22:39;;;;;;;6.30;5.70;;;;;;;10.50;72.82;94296.00;5048316;28;20197;-84
2022/11/16 02:25:13;;;;;;;7.70;6.40;;;;;;;10.41;72.73;94302.38;5045683;28;20258;-81
2022/11/16 02:28:07;;;;;;;7.07;6.10;;;;;;;10.44;73.01;94304.53;5050742;28;20192;-83
2022/11/16 02:30:38;;;;;;;6.77;6.17;;;;;;;10.42;72.61;94309.09;5050890;28;20205;-83
2022/11/16 02:33:09;;;;;;;7.23;6.17;;;;;;;10.47;72.52;94308.50;5051037;28;20240;-83
2022/11/16 02:35:41;;;;;;;7.20;6.20;;;;;;;10.51;72.65;94305.31;5050534;28;20595;-82
2022/11/16 02:38:13;;;;;;;7.20;6.33;;;;;;;10.56;72.41;94295.19;5050208;28;20201;-82
2022/11/16 02:40:44;;;;;;;7.23;6.13;;;;;;;10.59;72.51;94288.81;5049296;28;20185;-82
2022/11/16 02:43:16;;;;;;;7.77;6.23;;;;;;;10.45;73.16;94280.41;5050235;28;20185;-83
2022/11/16 02:45:48;;;;;;;6.20;5.67;;;;;;;10.46;73.22;94292.25;5049500;28;20814;-82
2022/11/16 02:48:20;;;;;;;7.27;6.57;;;;;;;10.41;74.11;94289.50;5049821;28;20197;-82
2022/11/16 02:50:47;;;;;;;8.90;7.13;;;;;;;10.33;74.04;94282.84;5042157;28;20207;-83
2022/11/16 02:53:15;;;;;;;7.57;6.87;;;;;;;10.37;73.90;94267.78;5050247;28;20212;-83
2022/11/16 02:55:41;;;;;;;9.53;7.40;;;;;;;10.34;74.61;94273.34;5049751;28;20223;-83
2022/11/16 02:58:11;;;;;;;8.73;7.30;;;;;;;10.37;74.27;94280.66;5050063;28;20546;-84
2022/11/16 03:00:46;;;;;;;8.27;7.47;;;;;;;10.38;74.67;94287.38;5049916;28;20208;-83
2022/11/16 03:03:21;;;;;;;8.40;7.60;;;;;;;10.37;75.33;94301.25;5050254;28;20280;-83
2022/11/16 03:05:52;;;;;;;10.57;8.40;;;;;;;10.38;74.97;94307.97;5041887;28;20187;-83
2022/11/16 03:08:23;;;;;;;9.37;8.47;;;;;;;10.37;75.30;94309.75;5042117;28;20200;-81
2022/11/16 03:13:39;;;;;;;11.10;8.77;;;;;;;10.26;75.58;94291.59;5049797;28;20204;-83
2022/11/16 03:16:13;;;;;;;10.83;9.57;;;;;;;10.19;76.13;94291.63;5051065;28;20237;-82
2022/11/16 03:18:40;;;;;;;11.97;10.27;;;;;;;10.20;76.17;94287.28;5047046;28;20181;-83
2022/11/16 03:21:14;;;;;;;11.90;10.03;;;;;;;10.10;76.48;94300.53;5054450;28;20542;-81
2022/11/16 03:23:42;;;;;;;11.33;10.13;;;;;;;10.07;76.60;94300.94;5052349;28;20426;-82
2022/11/16 03:26:13;;;;;;;15.27;10.77;;;;;;;10.08;77.23;94310.25;5053915;28;20209;-83
2022/11/16 03:28:50;;;;;;;11.30;10.10;;;;;;;9.99;77.85;94307.13;5053105;28;20209;-83
2022/11/16 03:31:24;;;;;;;11.80;10.53;;;;;;;10.05;77.34;94301.16;5054368;28;20557;-82
2022/11/16 03:33:54;;;;;;;12.40;10.60;;;;;;;10.11;77.10;94301.34;5046298;28;20209;-83
2022/11/16 03:36:27;;;;;;;12.83;10.90;;;;;;;10.12;76.89;94308.84;5054072;28;20224;-83
2022/11/16 03:38:55;;;;;;;11.83;10.67;;;;;;;10.02;77.08;94311.84;5046786;28;20193;-84
2022/11/16 03:41:23;;;;;;;12.50;11.27;;;;;;;10.00;76.69;94325.91;5052559;28;20202;-82
2022/11/16 03:43:50;;;;;;;12.07;10.87;;;;;;;9.96;76.77;94328.09;5045373;28;20241;-81
2022/11/16 03:46:18;;;;;;;11.60;10.40;;;;;;;9.96;76.55;94337.59;5053865;28;20205;-82
2022/11/16 03:48:45;;;;;;;11.83;10.63;;;;;;;9.90;77.04;94346.91;5052381;28;20205;-83
2022/11/16 03:51:12;;;;;;;12.23;11.00;;;;;;;9.77;77.31;94341.81;5053721;28;20657;-83
2022/11/16 03:53:39;;;;;;;12.43;11.13;;;;;;;9.67;78.21;94362.75;5052970;28;20209;-82
2022/11/16 03:56:05;;;;;;;12.27;10.97;;;;;;;9.51;79.96;94350.34;5053387;28;20572;-83
2022/11/16 03:58:32;;;;;;;11.90;10.67;;;;;;;9.49;79.83;94354.88;5053411;28;20201;-82
2022/11/16 04:00:58;;;;;;;13.37;11.53;;;;;;;9.59;78.78;94370.69;5046900;28;20204;-83
2022/11/16 04:03:26;;;;;;;12.67;11.37;;;;;;;9.56;78.91;94355.69;5050237;28;20568;-82
2022/11/16 04:25:18;;;;;;;12.47;11.17;;;;;;;9.47;78.85;94390.25;5048077;28;20279;-82
2022/11/16 04:37:47;;;;;;;11.37;10.23;;;;;;;9.36;80.23;94398.56;5047762;28;20240;-82
2022/11/16 04:38:45;;;;;;;11.57;10.27;;;;;;;9.32;80.92;94405.88;5052007;28;20276;-83
2022/11/16 04:42:13;;;;;;;11.80;10.60;;;;;;;9.33;80.53;94410.03;5052295;28;20205;-82
2022/11/16 04:43:58;;;;;;;11.23;10.13;;;;;;;9.37;80.89;94414.78;5045254;28;20213;-83
2022/11/16 04:49:09;;;;;;;12.07;10.87;;;;;;;9.23;81.81;94407.06;5051387;28;20882;-82
2022/11/16 04:51:37;;;;;;;12.47;11.27;;;;;;;9.21;81.80;94409.03;5052337;28;20197;-83
2022/11/16 04:54:03;;;;;;;12.13;10.80;;;;;;;9.12;82.72;94405.06;5043965;28;20229;-82
2022/11/16 04:56:30;;;;;;;11.07;9.90;;;;;;;9.21;81.87;94403.13;5050465;28;20610;-83
2022/11/16 04:58:56;;;;;;;12.57;11.27;;;;;;;9.27;81.59;94404.88;5048947;28;20232;-83
2022/11/16 05:02:06;;;;;;;11.57;10.37;;;;;;;9.29;82.28;94410.63;5046103;28;20564;-82
2022/11/16 05:04:10;;;;;;;12.03;10.83;;;;;;;9.30;82.30;94401.91;5050642;28;20300;-82
2022/11/16 05:06:37;;;;;;;11.73;10.60;;;;;;;9.35;81.71;94408.06;5050984;28;20197;-83
2022/11/16 05:09:04;;;;;;;12.50;10.93;;;;;;;9.40;81.54;94411.81;5042510;28;20457;-82
2022/11/16 05:11:31;;;;;;;12.33;11.03;;;;;;;9.36;82.42;94413.97;5051341;28;20568;-83
2022/11/16 05:13:57;;;;;;;12.73;11.37;;;;;;;9.33;83.17;94417.72;5052094;28;20217;-82
2022/11/16 05:16:23;;;;;;;11.57;10.37;;;;;;;9.35;82.83;94420.09;5051661;28;20203;-82
2022/11/16 05:20:59;;;;;;;13.00;11.67;;;;;;;9.33;83.37;94422.09;5051615;28;20209;-83
2022/11/16 05:21:37;;;;;;;13.10;11.80;;;;;;;9.29;84.33;94419.09;5051202;28;20632;-82
2022/11/16 05:26:47;;;;;;;12.37;11.07;;;;;;;9.33;84.44;94420.31;5031059;28;20225;-83
2022/11/16 05:29:13;;;;;;;12.80;11.20;;;;;;;9.39;84.59;94428.22;5029250;28;20206;-83
2022/11/16 05:31:40;;;;;;;12.63;11.33;;;;;;;9.40;84.88;94414.38;5047273;28;20204;-83
2022/11/16 05:34:06;;;;;;;12.77;11.23;;;;;;;9.46;84.21;94424.63;5045594;28;20591;-81
2022/11/16 05:36:32;;;;;;;12.87;11.57;;;;;;;9.45;85.47;94420.50;5051782;28;20568;-83
2022/11/16 05:39:00;;;;;;;13.47;11.77;;;;;;;9.46;84.73;94424.63;5039477;28;20579;-84
2022/11/16 05:41:27;;;;;;;13.43;11.77;;;;;;;9.46;85.13;94418.72;5031157;28;20205;-84
2022/11/16 05:43:54;;;;;;;13.00;11.00;;;;;;;9.48;85.34;94427.00;5031937;28;20229;-83
2022/11/16 05:46:22;;;;;;;12.00;10.80;;;;;;;9.51;85.25;94424.06;5046446;28;20193;-82
2022/11/16 05:48:48;;;;;;;12.60;11.23;;;;;;;9.52;85.39;94423.84;5029849;28;20217;-82
2022/11/16 05:51:15;;;;;;;13.43;11.80;;;;;;;9.53;89.44;94428.00;5042240;28;20850;-84
2022/11/16 05:53:43;;;;;;;14.40;11.43;;;;;;;9.52;89.18;94430.78;5051410;28;20609;-84
2022/11/16 05:56:13;;;;;;;13.50;12.07;;;;;;;9.52;91.66;94428.22;5045190;28;20201;-82
2022/11/16 05:58:39;;;;;;;13.63;11.37;;;;;;;9.52;90.72;94423.06;5045117;28;20198;-84
2022/11/16 06:01:06;;;;;;;34.80;31.23;;;;;;;9.52;90.26;94423.06;5051148;28;20201;-83
2022/11/16 06:03:34;;;;;;;46.50;38.70;;;;;;;9.58;88.93;94422.28;5051963;28;20440;-83
2022/11/16 06:06:01;;;;;;;15.87;14.17;;;;;;;9.57;89.52;94426.63;5052645;28;20221;-84
2022/11/16 06:08:27;;;;;;;17.57;13.67;;;;;;;9.63;88.91;94422.47;5035725;28;20260;-84
2022/11/16 06:10:54;;;;;;;14.30;11.90;;;;;;;9.64;90.34;94419.69;5038223;28;20193;-83
2022/11/16 06:13:22;;;;;;;12.23;10.93;;;;;;;9.67;89.77;94426.22;5051345;28;20679;-83
2022/11/16 06:15:49;;;;;;;11.03;9.83;;;;;;;9.69;89.96;94426.81;5051733;28;20711;-83
2022/11/16 06:18:15;;;;;;;11.00;9.90;;;;;;;9.73;89.58;94422.84;5050811;28;20209;-82
2022/11/16 06:20:41;;;;;;;11.40;10.20;;;;;;;9.74;90.24;94423.66;5050237;28;20198;-82
2022/11/16 06:23:08;;;;;;;11.33;9.53;;;;;;;9.70;90.98;94418.91;5032161;28;20205;-83
2022/11/16 06:25:38;;;;;;;12.87;9.93;;;;;;;9.78;90.87;94424.84;5047297;28;20221;-83
2022/11/16 06:28:05;;;;;;;10.47;9.37;;;;;;;9.80;90.99;94418.50;5050516;28;20209;-82
2022/11/16 06:30:33;;;;;;;31.43;24.67;;;;;;;9.84;92.33;94422.25;5050772;28;20201;-83
2022/11/16 06:32:59;;;;;;;17.70;15.07;;;;;;;9.79;95.28;94422.06;5051711;28;20201;-82
2022/11/16 06:35:26;;;;;;;16.20;14.50;;;;;;;9.79;95.67;94426.41;5051026;28;20225;-83
2022/11/16 06:37:52;;;;;;;11.23;9.60;;;;;;;9.87;93.64;94423.63;5051291;28;20331;-83
2022/11/16 06:40:19;;;;;;;10.33;9.23;;;;;;;9.95;92.71;94426.00;5049755;28;20201;-83
2022/11/16 06:42:48;;;;;;;10.17;8.53;;;;;;;10.02;92.53;94426.75;5051671;28;20205;-84
2022/11/16 06:45:14;;;;;;;10.30;8.67;;;;;;;10.01;93.43;94423.38;5038575;28;20308;-84
2022/11/16 06:47:42;;;;;;;9.27;8.37;;;;;;;10.07;92.61;94419.22;5036184;28;20569;-81
2022/11/16 06:50:09;;;;;;;15.23;9.37;;;;;;;10.09;93.25;94421.59;5051074;28;20201;-83
2022/11/16 06:52:38;;;;;;;10.27;7.97;;;;;;;10.10;92.90;94420.63;5041652;28;20217;-83
2022/11/16 06:55:05;;;;;;;9.27;8.30;;;;;;;10.10;94.38;94420.63;5034096;28;20222;-83
2022/11/16 06:57:35;;;;;;;11.17;8.20;;;;;;;10.09;95.41;94416.47;5030738;28;20198;-82
2022/11/16 07:00:03;;;;;;;10.20;8.23;;;;;;;10.13;94.82;94420.22;5043942;28;20831;-83
2022/11/16 07:02:29;;;;;;;9.53;7.60;;;;;;;10.22;94.44;94419.81;5050230;28;20205;-82
2022/11/16 07:04:57;;;;;;;9.13;8.10;;;;;;;10.23;94.96;94420.59;5050229;28;20230;-82
2022/11/16 07:07:23;;;;;;;8.70;7.57;;;;;;;10.26;94.19;94420.19;5050416;28;20313;-82
2022/11/16 07:09:50;;;;;;;9.37;7.90;;;;;;;10.28;94.88;94421.59;5050254;28;20197;-84
2022/11/16 07:12:16;;;;;;;36.23;28.60;;;;;;;10.33;95.52;94420.97;5049749;28;20197;-81
2022/11/16 07:14:44;;;;;;;12.70;10.53;;;;;;;10.36;95.28;94420.56;5050540;28;20220;-82
2022/11/16 07:17:10;;;;;;;13.10;11.07;;;;;;;10.39;95.39;94420.19;5051450;28;20208;-82
2022/11/16 07:19:37;;;;;;;9.13;8.10;;;;;;;10.39;97.10;94422.75;5046453;28;20584;-82
2022/11/16 07:22:05;;;;;;;8.33;7.10;;;;;;;10.45;96.10;94418.56;5041905;28;20200;-82
2022/11/16 07:24:33;;;;;;;7.77;6.67;;;;;;;10.51;95.64;94415.97;5045853;28;20593;-83
2022/11/16 07:27:00;;;;;;;8.50;6.83;;;;;;;10.53;96.12;94418.34;5030931;28;20880;-83
2022/11/16 07:29:33;;;;;;;7.10;6.30;;;;;;;10.57;95.94;94414.34;5029694;28;20684;-82
2022/11/16 07:32:00;;;;;;;7.90;6.90;;;;;;;10.58;96.53;94410.78;5049430;28;20224;-83
2022/11/16 07:34:32;;;;;;;7.80;6.40;;;;;;;10.60;96.75;94412.16;5049849;28;20222;-82
2022/11/16 07:36:58;;;;;;;8.23;6.30;;;;;;;10.62;96.84;94420.44;5049903;28;20657;-84
2022/11/16 07:39:26;;;;;;;9.40;6.60;;;;;;;10.67;96.49;94417.28;5050293;28;20197;-83
2022/11/16 07:41:53;;;;;;;10.37;7.00;;;;;;;10.68;96.95;94426.56;5039774;28;20590;-83
2022/11/16 07:44:19;;;;;;;7.93;6.40;;;;;;;10.69;97.26;94425.59;5029737;28;20226;-83
2022/11/16 07:46:46;;;;;;;10.87;8.70;;;;;;;10.73;96.06;94426.75;5030181;28;20843;-83
2022/11/16 07:49:14;;;;;;;10.23;8.80;;;;;;;10.71;97.11;94432.09;5038123;28;20206;-83
2022/11/16 07:51:41;;;;;;;10.00;6.83;;;;;;;10.76;97.28;94434.06;5041612;28;20201;-83
2022/11/16 07:54:08;;;;;;;8.13;6.47;;;;;;;10.80;96.18;94432.66;5039592;28;20226;-82
2022/11/16 07:57:20;;;;;;;;;;;;;;;;;;;;;
2022/11/16 07:59:48;;;;;;;7.40;6.53;;;;;;;10.85;97.26;94430.25;5029273;28;20210;-82
2022/11/16 08:02:15;;;;;;;7.20;6.03;;;;;;;10.87;96.56;94435.19;5029293;28;20669;-82
2022/11/16 08:04:41;;;;;;;7.40;6.53;;;;;;;10.92;96.30;94440.53;5049716;28;20229;-83
2022/11/16 08:07:08;;;;;;;8.23;7.23;;;;;;;10.93;97.13;94431.81;5053184;28;20209;-81
2022/11/16 08:09:36;;;;;;;9.57;6.37;;;;;;;10.94;96.58;94439.31;5053219;28;20205;-83
2022/11/16 08:12:03;;;;;;;8.67;6.20;;;;;;;10.95;97.37;94440.91;5053022;28;20238;-83
2022/11/16 08:14:29;;;;;;;7.27;5.90;;;;;;;10.98;96.96;94434.53;5052938;28;20712;-83
2022/11/16 08:16:57;;;;;;;8.20;6.23;;;;;;;10.99;96.87;94441.25;5053179;28;20684;-82
2022/11/16 08:19:23;;;;;;;7.63;5.90;;;;;;;10.96;98.25;94442.47;5052974;28;20243;-83
2022/11/16 08:21:50;;;;;;;7.70;6.40;;;;;;;11.00;97.41;94445.41;5053015;28;20197;-83
2022/11/16 08:24:17;;;;;;;6.87;6.17;;;;;;;11.01;98.15;94441.84;5053267;28;20315;-83
2022/11/16 08:26:43;;;;;;;10.57;6.57;;;;;;;11.06;98.22;94444.59;5052632;28;20206;-81
2022/11/16 08:29:11;;;;;;;6.87;6.17;;;;;;;11.08;98.34;94445.19;5052783;28;20208;-83
2022/11/16 08:31:38;;;;;;;7.93;6.30;;;;;;;11.12;97.90;94442.97;5053595;28;20197;-84
2022/11/16 08:34:06;;;;;;;9.47;6.77;;;;;;;11.11;98.40;94451.72;5053376;28;20716;-82
2022/11/16 08:36:32;;;;;;;6.27;5.67;;;;;;;11.09;98.89;94454.50;5046637;28;20190;-84
2022/11/16 08:39:00;;;;;;;8.60;6.30;;;;;;;11.10;98.90;94442.41;5033442;28;20210;-82
2022/11/16 08:41:27;;;;;;;8.40;6.97;;;;;;;11.13;98.15;94439.41;5031697;28;20210;-82
2022/11/16 08:43:53;;;;;;;6.90;6.20;;;;;;;11.14;99.28;94448.72;5037324;28;20228;-84
2022/11/16 08:46:20;;;;;;;9.17;6.43;;;;;;;11.14;99.72;94452.09;5041595;28;20674;-82
2022/11/16 08:48:47;;;;;;;8.33;5.93;;;;;;;11.18;98.51;94453.22;5052450;28;20212;-82
2022/11/16 08:51:17;;;;;;;8.03;5.80;;;;;;;11.19;99.32;94451.44;5052270;28;20653;-82
2022/11/16 08:53:43;;;;;;;6.43;5.83;;;;;;;11.18;99.70;94445.50;5052216;28;20209;-84
2022/11/16 08:56:12;;;;;;;7.50;5.47;;;;;;;11.24;99.07;94451.63;5051436;28;20562;-83
2022/11/16 08:58:39;;;;;;;12.00;10.60;;;;;;;11.27;99.67;94452.00;5052184;28;20201;-83
2022/11/16 09:01:09;;;;;;;10.63;6.63;;;;;;;11.22;100.00;94448.47;5052357;28;20640;-82
2022/11/16 09:03:37;;;;;;;7.67;6.20;;;;;;;11.29;99.90;94454.38;5046336;28;20664;-83
2022/11/16 09:06:03;;;;;;;6.47;5.50;;;;;;;11.31;100.00;94455.75;5034862;28;20280;-84
2022/11/16 09:08:31;;;;;;;7.67;5.73;;;;;;;11.28;100.00;94460.53;5030989;28;20202;-82
2022/11/16 09:10:58;;;;;;;6.50;5.50;;;;;;;11.29;100.00;94457.75;5032302;28;20210;-83
2022/11/16 09:13:24;;;;;;;6.60;5.90;;;;;;;11.36;100.00;94461.03;5032515;28;20209;-82
2022/11/16 09:15:56;;;;;;;6.23;5.60;;;;;;;11.39;100.00;94465.00;5032514;28;20641;-83
2022/11/16 09:18:22;;;;;;;6.53;5.00;;;;;;;11.35;100.00;94467.19;5032280;28;20244;-83
2022/11/16 09:20:49;;;;;;;5.43;4.87;;;;;;;11.31;100.00;94466.06;5032411;28;20202;-83
2022/11/16 09:23:15;;;;;;;5.10;4.60;;;;;;;11.37;100.00;94472.94;5032655;28;20205;-83
2022/11/16 09:25:44;;;;;;;5.20;4.70;;;;;;;11.46;100.00;94470.91;5048884;28;20225;-82
2022/11/16 09:28:11;;;;;;;5.03;4.50;;;;;;;11.47;100.00;94472.47;5051377;28;20201;-81
2022/11/16 09:30:37;;;;;;;5.73;5.17;;;;;;;11.49;100.00;94475.63;5031686;28;20209;-83
2022/11/16 09:33:04;;;;;;;6.13;4.87;;;;;;;11.51;100.00;94478.00;5032410;28;20198;-84
2022/11/16 09:35:32;;;;;;;5.07;4.50;;;;;;;11.49;100.00;94480.00;5031280;28;20229;-82
2022/11/16 09:37:59;;;;;;;5.97;5.10;;;;;;;11.48;100.00;94475.84;5049039;28;20237;-83
2022/11/16 09:40:29;;;;;;;4.77;4.27;;;;;;;11.52;100.00;94479.59;5045112;28;20202;-84
2022/11/16 09:43:06;;;;;;;5.20;4.63;;;;;;;11.53;100.00;94476.81;5039147;28;20186;-84
2022/11/16 09:45:42;;;;;;;8.33;7.53;;;;;;;11.47;100.00;94472.47;5031244;28;20236;-83
2022/11/16 09:48:13;;;;;;;8.70;7.83;;;;;;;11.49;100.00;94480.81;5049725;28;20201;-83
2022/11/16 09:50:44;;;;;;;10.70;9.60;;;;;;;11.50;100.00;94476.44;5049601;28;20197;-84
2022/11/16 09:53:24;;;;;;;8.67;5.77;;;;;;;11.55;100.00;94486.88;5052035;28;20216;-83
2022/11/16 09:55:53;;;;;;;6.50;4.90;;;;;;;11.54;100.00;94475.81;5052268;28;20209;-83
2022/11/16 09:58:26;;;;;;;4.20;3.80;;;;;;;11.49;100.00;94483.38;5046368;28;20221;-83
2022/11/16 10:00:58;;;;;;;4.90;4.50;;;;;;;11.50;100.00;94477.22;5032310;28;20183;-83
2022/11/16 10:03:26;;;;;;;4.70;4.20;;;;;;;11.54;100.00;94487.91;5031390;28;20187;-82
2022/11/16 10:06:01;;;;;;;6.40;4.63;;;;;;;11.46;100.00;94488.94;5031711;28;20265;-84
2022/11/16 10:08:40;;;;;;;5.93;4.40;;;;;;;11.50;100.00;94489.31;5030252;28;20268;-83
2022/11/16 10:11:25;;;;;;;5.00;4.40;;;;;;;11.43;100.00;94486.78;5031358;28;20771;-83
2022/11/16 10:14:03;;;;;;;4.80;4.30;;;;;;;11.41;100.00;94479.25;5031620;28;20221;-83
2022/11/16 10:16:36;;;;;;;4.27;3.87;;;;;;;11.45;100.00;94484.78;5031684;28;20532;-84
2022/11/16 10:19:14;;;;;;;5.13;4.40;;;;;;;11.45;100.00;94478.84;5043967;28;20201;-84
2022/11/16 10:21:51;;;;;;;5.17;4.27;;;;;;;11.44;100.00;94480.63;5047941;28;20632;-84
2022/11/16 10:24:42;;;;;;;4.60;4.20;;;;;;;11.48;100.00;94478.44;5045598;28;20220;-83
2022/11/16 10:27:27;;;;;;;4.63;4.23;;;;;;;11.50;100.00;94477.22;5029897;28;20206;-84
2022/11/16 10:30:06;;;;;;;4.70;4.30;;;;;;;11.54;100.00;94475.03;5039136;28;20193;-83
2022/11/16 10:32:38;;;;;;;5.50;4.70;;;;;;;11.56;100.00;94480.72;5041163;28;20200;-82
2022/11/16 10:35:12;;;;;;;4.47;4.07;;;;;;;11.46;100.00;94475.25;5049544;28;20224;-83
2022/11/16 10:37:44;;;;;;;4.87;4.30;;;;;;;11.45;100.00;94473.69;5042156;28;20194;-84
2022/11/16 10:40:19;;;;;;;4.80;4.40;;;;;;;11.42;100.00;94469.72;5042199;28;20201;-83
2022/11/16 10:42:53;;;;;;;5.97;4.67;;;;;;;11.46;100.00;94476.06;5049665;28;20197;-84
2022/11/16 10:45:25;;;;;;;4.80;4.40;;;;;;;11.46;100.00;94468.31;5049503;28;20221;-84
2022/11/16 10:47:56;;;;;;;5.80;5.07;;;;;;;11.50;100.00;94471.28;5049685;28;20200;-84
2022/11/16 10:50:32;;;;;;;5.20;4.63;;;;;;;11.54;100.00;94473.22;5049394;28;20186;-83
2022/11/16 10:53:00;;;;;;;6.90;4.83;;;;;;;11.63;100.00;94476.31;5050222;28;20671;-84
2022/11/16 10:55:28;;;;;;;6.43;4.90;;;;;;;11.70;100.00;94479.66;5049326;28;20321;-83
2022/11/16 10:57:56;;;;;;;5.60;4.83;;;;;;;11.72;100.00;94467.34;5050198;28;20221;-83
2022/11/16 11:00:40;;;;;;;5.73;5.13;;;;;;;11.79;100.00;94467.31;5049836;28;20200;-83
2022/11/16 11:03:09;;;;;;;5.90;5.30;;;;;;;11.80;100.00;94461.94;5042943;28;20198;-84
2022/11/16 11:05:36;;;;;;;8.97;8.10;;;;;;;11.84;100.00;94463.09;5033571;28;20314;-84
2022/11/16 11:08:05;;;;;;;13.17;11.83;;;;;;;11.86;100.00;94461.09;5038581;28;20198;-83
2022/11/16 11:10:34;;;;;;;7.53;6.27;;;;;;;11.94;100.00;94458.25;5041650;28;20255;-85
2022/11/16 11:13:04;;;;;;;5.80;5.20;;;;;;;12.02;100.00;94454.59;5045057;28;20654;-85
2022/11/16 11:15:30;;;;;;;6.03;5.13;;;;;;;12.04;100.00;94447.44;5046670;28;20230;-85
2022/11/16 11:18:25;;;;;;;5.57;5.00;;;;;;;12.07;100.00;94455.56;5041412;28;20213;-84
2022/11/16 11:21:05;;;;;;;5.10;4.60;;;;;;;12.13;100.00;94448.72;5048343;28;20200;-84
2022/11/16 11:23:41;;;;;;;4.80;4.40;;;;;;;12.02;100.00;94445.06;5050047;28;20197;-83
2022/11/16 11:26:21;;;;;;;5.93;5.03;;;;;;;12.05;100.00;94443.88;5040922;28;20211;-83
2022/11/16 11:28:49;;;;;;;7.20;4.77;;;;;;;12.08;99.84;94456.34;5046417;28;20193;-84
2022/11/16 11:31:24;;;;;;;5.97;4.50;;;;;;;12.11;100.00;94445.59;5050870;28;20198;-83
2022/11/16 11:33:53;;;;;;;5.17;4.67;;;;;;;12.18;100.00;94450.69;5042493;28;20284;-83
2022/11/16 11:36:22;;;;;;;5.47;4.97;;;;;;;12.26;100.00;94451.19;5043635;28;20196;-83
2022/11/16 11:38:58;;;;;;;4.80;4.40;;;;;;;12.36;100.00;94458.44;5046304;28;20252;-84
2022/11/16 11:41:26;;;;;;;6.33;4.10;;;;;;;12.61;100.00;94445.44;5048165;28;20209;-84
2022/11/16 11:44:02;;;;;;;4.53;4.13;;;;;;;12.65;97.65;94446.59;5053506;28;20304;-84
2022/11/16 11:46:33;;;;;;;4.83;4.43;;;;;;;12.65;97.61;94462.09;5050574;28;20259;-83
2022/11/16 11:49:08;;;;;;;5.50;4.57;;;;;;;12.58;97.03;94451.03;5052970;28;20206;-83
2022/11/16 11:51:38;;;;;;;6.23;5.70;;;;;;;12.57;96.62;94452.06;5052452;28;20212;-83
2022/11/16 11:54:14;;;;;;;5.90;5.30;;;;;;;12.51;97.37;94452.94;5048937;28;20229;-83
2022/11/16 11:56:41;;;;;;;5.40;4.70;;;;;;;12.51;97.98;94448.53;5050067;28;20197;-82
2022/11/16 11:59:17;;;;;;;4.43;4.03;;;;;;;12.49;96.71;94450.56;5051757;28;20202;-84
2022/11/16 12:01:58;;;;;;;4.50;4.10;;;;;;;12.51;97.05;94450.34;5052298;28;20197;-82
2022/11/16 12:05:23;;;;;;;4.07;3.77;;;;;;;12.50;96.96;94448.78;5053613;28;20243;-84
2022/11/16 12:08:11;;;;;;;4.43;4.03;;;;;;;12.44;96.13;94455.56;5051193;28;20216;-83
2022/11/16 12:10:46;;;;;;;4.67;3.97;;;;;;;12.42;95.34;94445.47;5053796;28;20640;-83
2022/11/16 12:13:36;;;;;;;4.47;4.00;;;;;;;12.38;95.16;94448.69;5052561;28;20189;-83
2022/11/16 12:16:10;;;;;;;6.17;4.83;;;;;;;12.37;96.44;94457.44;5053051;28;20208;-84
2022/11/16 12:18:52;;;;;;;6.17;4.60;;;;;;;12.34;96.83;94450.13;5053990;28;20200;-82
2022/11/16 12:21:31;;;;;;;5.53;3.40;;;;;;;12.24;94.98;94448.03;5052921;28;20186;-82
2022/11/16 12:24:10;;;;;;;4.23;3.37;;;;;;;12.22;94.43;94438.94;5052970;28;20205;-83
2022/11/16 12:26:48;;;;;;;4.23;3.50;;;;;;;12.19;94.33;94439.34;5046339;28;20558;-83